Data for 09/11/2016

Time Sea-Level Adjusted Pressure Absolute Pressure Temperature Relative Humidity Dew Point   
(mb) (inHg) (mb) (inHg) (C) (F) (%) (C) (F)
00:05 1018 30.06 847 25.01 14 57.2 30 -3.3 26.1
00:10 1018 30.06 847 25.01 14 57.2 30 -3.3 26.1
00:15 1018 30.06 847 25.01 13.9 57 31 -2.8 27
00:20 1018 30.06 847 25.01 13.5 56.3 32 -2.8 27
00:25 1018 30.06 847 25.01 13.3 56 31 -3.2 26.2
00:30 1018 30.06 847 25.01 13.4 56.2 31 -3.1 26.4
00:35 1018 30.06 847 25.01 13.5 56.3 31 -3.1 26.5
00:40 1018 30.06 847 25.01 13.5 56.3 31 -3.3 26
00:45 1018 30.06 847 25.01 13.4 56.2 30 -3.6 25.5
00:50 1018 30.06 847 25.01 13.7 56.6 31 -3.3 26.1
00:55 1018 30.06 847 25.01 13.5 56.3 30 -3.6 25.5
01:00 1018 30.06 847 25.01 13.6 56.6 31 -2.9 26.8
01:05 1018 30.06 847 25.01 13 55.3 33 -3 26.7
01:10 1018 30.06 847 25.01 12.9 55.2 32 -3.4 25.9
01:15 1018 30.06 847 25.01 13 55.4 32 -3.1 26.5
01:20 1018 30.06 847 25.01 12.6 54.8 33 -3.1 26.4
01:25 1018 30.06 847 25.01 12.5 54.5 33 -3.3 26.1
01:30 1018 30.06 847 25.01 12.2 54 34 -3.3 26
01:35 1018 30.06 847 25.01 12.3 54.1 33 -3.6 25.5
01:40 1018 30.06 847 25.01 12.4 54.2 32 -3.8 25.1
01:45 1018 30.06 847 25.01 12.5 54.5 32 -3.8 25.2
01:50 1018 30.06 847 25.01 12.6 54.7 32 -3.5 25.7
01:55 1018 30.06 847 25.01 12.6 54.7 30 -4.3 24.3
02:00 1018 30.06 847 25.01 12.8 55.1 30 -4.2 24.5
02:05 1017 30.03 847 25.01 12.6 54.7 31 -3.9 24.9
02:10 1017 30.03 847 25.01 12.7 54.8 31 -3.8 25.2
02:15 1017 30.03 847 25.01 12.1 53.7 37 -2.1 28.2
02:20 1017 30.03 847 25.01 11.7 53 31 -5 22.9
02:25 1017 30.03 847 25.01 12.1 53.8 33 -3.5 25.8
02:30 1017 30.03 847 25.01 11.3 52.4 38 -2.5 27.6
02:35 1017 30.03 847 25.01 10.7 51.2 40 -2.3 27.8
02:40 1017 30.03 846 24.98 10.3 50.6 38 -3.5 25.7
02:45 1017 30.03 846 24.98 10.6 51 37 -3.7 25.4
02:50 1017 30.03 846 24.98 11.5 52.6 31 -5.1 22.8
02:55 1017 30.03 846 24.98 12.4 54.4 31 -4.4 24.1
03:00 1017 30.03 846 24.98 12.3 54.1 30 -4.7 23.5
03:05 1017 30.03 846 24.98 12.5 54.5 30 -4.5 23.9
03:10 1017 30.03 846 24.98 12.2 54 32 -4 24.8
03:15 1017 30.03 846 24.98 11.9 53.5 32 -4.4 24.1
03:20 1017 30.03 846 24.98 11.8 53.3 32 -4.4 24.1
03:25 1017 30.03 846 24.98 12 53.6 31 -4.5 23.9
03:30 1017 30.03 846 24.98 12.1 53.8 31 -4.3 24.2
03:35 1017 30.03 846 24.98 12.1 53.8 31 -4.5 23.9
03:40 1017 30.03 846 24.98 12.1 53.8 30 -5 22.9
03:45 1017 30.03 846 24.98 12.4 54.4 29 -4.9 23.3
03:50 1017 30.03 846 24.98 12.3 54.1 30 -4.6 23.7
03:55 1017 30.03 846 24.98 12.3 54.2 29 -5.3 22.5
04:00 1017 30.03 846 24.98 12.6 54.6 29 -4.8 23.4
04:05 1017 30.03 846 24.98 12.3 54.1 31 -4.5 23.9
04:10 1017 30.03 846 24.98 11.9 53.4 31 -4.7 23.6
04:15 1017 30.03 846 24.98 12 53.5 31 -4.6 23.7
04:20 1017 30.03 846 24.98 11.8 53.2 31 -4.6 23.7
04:25 1017 30.03 846 24.98 11.8 53.3 31 -4.8 23.4
04:30 1017 30.03 846 24.98 11.8 53.3 32 -4.4 24.1
04:35 1017 30.03 846 24.98 11.7 53 32 -4.3 24.2
04:40 1016 30 846 24.98 11.6 52.8 30 -5.3 22.5
04:45 1016 30 846 24.98 12.4 54.4 31 -4.3 24.2
04:50 1016 30 845 24.95 12.1 53.8 31 -4.5 23.8
04:55 1016 30 845 24.95 11.8 53.2 32 -4.3 24.3
05:00 1016 30 845 24.95 11.8 53.2 30 -5.3 22.4
05:05 1016 30 845 24.95 12.3 54.2 29 -5.3 22.4
05:10 1016 30 845 24.95 13 55.3 27 -5.4 22.3
05:15 1016 30 845 24.95 13.3 56 27 -5.5 22.2
05:20 1016 30 845 24.95 13.3 55.9 25 -6.2 20.9
05:25 1016 30 845 24.95 14 57.2 25 -5.8 21.6
05:30 1016 30 845 24.95 14 57.2 27 -4.9 23.3
05:35 1016 30 845 24.95 13.5 56.3 28 -4.7 23.6
05:40 1016 30 845 24.95 12.6 54.8 30 -4.6 23.7
05:45 1016 30 845 24.95 12.2 53.9 29 -5.3 22.5
05:50 1016 30 845 24.95 12.3 54.2 27 -6.1 21
05:55 1016 30 845 24.95 12.9 55.3 29 -4.7 23.5
06:00 1016 30 845 24.95 12.7 54.9 28 -5.1 22.9
06:05 1016 30 845 24.95 13.1 55.7 30 -4.2 24.4
06:10 1016 30 845 24.95 13.5 56.2 27 -5.2 22.7
06:15 1016 30 845 24.95 14.1 57.4 24 -6.1 21
06:20 1016 30 845 24.95 14.8 58.7 29 -2.9 26.8
06:25 1016 30 845 24.95 13.1 55.6 28 -4.9 23.2
06:30 1016 30 845 24.95 13.5 56.2 27 -5.1 22.9
06:35 1016 30 845 24.95 13.8 56.9 27 -4.8 23.4
06:40 1016 30 845 24.95 13.6 56.4 28 -4.7 23.6
06:45 1016 30 845 24.95 13.2 55.7 32 -3.1 26.5
06:50 1016 30 845 24.95 13.1 55.6 28 -5 23.1
06:55 1016 30 845 24.95 14 57.3 25 -5.6 22
07:00 1016 30 845 24.95 15.2 59.3 25 -4.9 23.2
07:05 1016 30 845 24.95 15.6 60.1 25 -4.4 24.2
07:10 1016 30 845 24.95 15.4 59.6 26 -3.9 24.9
07:15 1016 30 845 24.95 15 59 27 -3.9 25
07:20 1016 30 845 24.95 14.7 58.5 26 -4.4 24.1
07:25 1016 30 845 24.95 14.7 58.5 27 -4 24.8
07:30 1016 30 845 24.95 15.3 59.5 25 -4.4 24.1
07:35 1016 30 845 24.95 16.2 61.2 25 -3.6 25.6
07:40 1016 30 845 24.95 16.1 61.1 25 -3.8 25.2
07:45 1016 30 845 24.95 16.9 62.3 26 -2.8 26.9
07:50 1016 30 845 24.95 16.4 61.5 28 -2.2 28.1
07:55 1016 30 845 24.95 15.7 60.3 29 -2.1 28.3
08:00 1016 30 845 24.95 15.8 60.5 28 -2.5 27.5
08:05 1016 30 845 24.95 16.5 61.7 28 -2.1 28.2
08:10 1016 30 845 24.95 17.1 62.7 28 -1.5 29.3
08:15 1016 30 845 24.95 17.4 63.3 29 -0.9 30.3
08:20 1016 30 845 24.95 17.9 64.2 27 -1.1 30
08:25 1016 30 845 24.95 18.6 65.4 26 -1.1 30
08:30 1016 30 845 24.95 18.9 66 24 -1.9 28.6
08:35 1016 30 845 24.95 19 66.1 23 -2.5 27.6
08:40 1016 30 845 24.95 19.2 66.6 22 -2.9 26.8
08:45 1016 30 845 24.95 19.3 66.8 22 -2.7 27.2
08:50 1016 30 845 24.95 19.6 67.3 23 -1.9 28.6
08:55 1016 30 845 24.95 19.3 66.8 27 -0.2 31.6
09:00 1016 30 845 24.95 18.7 65.6 30 1 33.8
09:05 1016 30 845 24.95 18.2 64.7 29 -0.2 31.6
09:10 1016 30 845 24.95 17.7 63.9 27 -1.5 29.3
09:15 1016 30 845 24.95 18.2 64.8 23 -3 26.6
09:20 1016 30 845 24.95 19.2 66.6 22 -2.9 26.8
09:25 1016 30 845 24.95 20.2 68.3 21 -2.9 26.8
09:30 1016 30 845 24.95 20.6 69 22 -1.7 29
09:35 1016 30 845 24.95 20.7 69.2 23 -1.3 29.6
09:40 1015 29.97 845 24.95 20.6 69.1 22 -1.4 29.4
09:45 1015 29.97 845 24.95 20.1 68.2 25 -0.3 31.5
09:50 1015 29.97 845 24.95 19.9 67.9 26 -0.2 31.6
09:55 1015 29.97 845 24.95 20.2 68.4 25 -0.3 31.5
10:00 1015 29.97 845 24.95 20.4 68.7 22 -1.6 29.1
10:05 1015 29.97 845 24.95 20.5 69 23 -1 30.1
10:10 1015 29.97 845 24.95 20.1 68.1 24 -0.8 30.5
10:15 1015 29.97 844 24.92 19.9 67.9 23 -1.8 28.8
10:20 1015 29.97 844 24.92 20.5 68.9 22 -2 28.4
10:25 1015 29.97 844 24.92 21.2 70.1 19 -3.4 25.8
10:30 1015 29.97 844 24.92 21.1 70 21 -1.7 29
10:35 1015 29.97 844 24.92 20.3 68.5 21 -2.6 27.3
10:40 1015 29.97 844 24.92 20.5 68.9 21 -2.4 27.8
10:45 1015 29.97 844 24.92 21.3 70.3 21 -2 28.4
10:50 1015 29.97 844 24.92 21.8 71.3 18 -3.2 26.3
10:55 1015 29.97 844 24.92 22.3 72.2 18 -2.6 27.2
11:00 1015 29.97 844 24.92 22.4 72.3 18 -3.2 26.2
11:05 1015 29.97 844 24.92 22.4 72.3 16 -4.7 23.5
11:10 1015 29.97 844 24.92 22.2 72 17 -3.5 25.8
11:15 1015 29.97 844 24.92 22 71.6 18 -3.5 25.6
11:20 1015 29.97 844 24.92 21.5 70.6 19 -3 26.6
11:25 1015 29.97 844 24.92 21.7 71 17 -4 24.8
11:30 1014 29.94 844 24.92 22.8 73 16 -3.9 25
11:35 1014 29.94 844 24.92 22.7 72.9 17 -3.1 26.4
11:40 1014 29.94 844 24.92 22.3 72.2 17 -4.1 24.7
11:45 1014 29.94 844 24.92 22.5 72.4 17 -3.5 25.8
11:50 1014 29.94 843 24.89 22.3 72.1 17 -3.6 25.6
11:55 1014 29.94 843 24.89 22.1 71.8 19 -2.7 27.2
12:00 1014 29.94 843 24.89 21.8 71.2 19 -2.9 26.9
12:05 1014 29.94 843 24.89 21.5 70.7 18 -3.4 26
12:10 1014 29.94 843 24.89 21.2 70.2 19 -3.3 26
12:15 1014 29.94 843 24.89 21.2 70.1 18 -3.9 25
12:20 1014 29.94 843 24.89 21.1 70 18 -3.8 25.2
12:25 1014 29.94 843 24.89 20.7 69.3 18 -4 24.8
12:30 1014 29.94 843 24.89 20.7 69.3 19 -3.6 25.5
12:35 1014 29.94 843 24.89 20.9 69.6 18 -3.9 25
12:40 1014 29.94 843 24.89 21.4 70.6 16 -5.3 22.5
12:45 1014 29.94 843 24.89 21.7 71.1 17 -4.3 24.3
12:50 1014 29.94 843 24.89 21.6 70.9 17 -4.3 24.3
12:55 1014 29.94 843 24.89 21.5 70.7 17 -4.6 23.6
13:00 1014 29.94 843 24.89 21.5 70.6 17 -4.2 24.5
13:05 1014 29.94 843 24.89 21.1 70.1 18 -4 24.7
13:10 1014 29.94 843 24.89 21.1 69.9 19 -3.2 26.3
13:15 1014 29.94 843 24.89 21.5 70.6 19 -3 26.6
13:20 1014 29.94 843 24.89 21.6 70.9 21 -1.7 29
13:25 1014 29.94 843 24.89 21.7 71 20 -2.3 27.8
13:30 1014 29.94 843 24.89 21.8 71.2 21 -1.7 29
13:35 1014 29.94 843 24.89 21.9 71.5 20 -1.7 28.9
13:40 1014 29.94 843 24.89 21.7 71 22 -1 30.2
13:45 1014 29.94 843 24.89 21.3 70.3 21 -1.7 28.9
13:50 1014 29.94 843 24.89 21 69.8 22 -1.7 29
13:55 1014 29.94 843 24.89 21.1 70 23 -0.9 30.4
14:00 1014 29.94 843 24.89 20.7 69.3 25 0 32
14:05 1014 29.94 843 24.89 20.3 68.5 26 0 32.1
14:10 1014 29.94 843 24.89 20 68 28 1.2 34.2
14:15 1014 29.94 843 24.89 19.8 67.7 29 1.5 34.7
14:20 1014 29.94 843 24.89 19.1 66.4 31 1.6 34.8
14:25 1014 29.94 843 24.89 18.6 65.5 32 1.6 35
14:30 1014 29.94 843 24.89 18.3 64.9 32 1.6 35
14:35 1014 29.94 844 24.92 18.2 64.8 31 0.9 33.6
14:40 1014 29.94 844 24.92 18 64.4 32 1.1 34
14:45 1014 29.94 843 24.89 18 64.4 31 0.7 33.3
14:50 1015 29.97 844 24.92 18.2 64.8 31 0.8 33.4
14:55 1015 29.97 844 24.92 18.3 65 31 1.2 34.2
15:00 1015 29.97 844 24.92 18.3 64.9 31 1.1 34
15:05 1015 29.97 844 24.92 18.1 64.6 32 1.4 34.6
15:10 1015 29.97 844 24.92 17.9 64.3 32 1.3 34.3
15:15 1015 29.97 844 24.92 18.1 64.5 32 1.1 34
15:20 1015 29.97 844 24.92 18 64.4 32 1.4 34.5
15:25 1015 29.97 844 24.92 18 64.3 32 1.2 34.1
15:30 1015 29.97 844 24.92 17.7 63.9 33 1.4 34.4
15:35 1015 29.97 844 24.92 17.6 63.8 32 1 33.8
15:40 1015 29.97 844 24.92 17.3 63.1 32 0.6 33.2
15:45 1015 29.97 844 24.92 17 62.6 33 0.6 33
15:50 1015 29.97 845 24.95 16.8 62.2 33 0.4 32.7
15:55 1015 29.97 845 24.95 16.6 61.9 33 0.3 32.5
16:00 1015 29.97 845 24.95 16.5 61.6 33 0.3 32.5
16:05 1015 29.97 845 24.95 16.4 61.6 33 0.3 32.6
16:10 1015 29.97 845 24.95 16.4 61.5 32 -0.3 31.5
16:15 1016 30 845 24.95 16.1 61.1 32 -0.6 31
16:20 1016 30 845 24.95 16 60.8 32 -0.5 31.1
16:25 1016 30 845 24.95 16 60.7 32 -0.6 30.9
16:30 1016 30 845 24.95 16 60.8 32 -0.6 31
16:35 1016 30 845 24.95 16 60.9 33 -0.2 31.6
16:40 1016 30 845 24.95 16 60.8 32 -0.5 31.1
16:45 1016 30 846 24.98 16 60.8 32 -0.5 31.1
16:50 1016 30 846 24.98 16 60.7 32 -0.8 30.6
16:55 1016 30 846 24.98 15.9 60.7 32 -0.7 30.7
17:00 1016 30 846 24.98 15.9 60.6 32 -0.7 30.7
17:05 1016 30 846 24.98 15.8 60.4 31 -1.2 29.8
17:10 1016 30 846 24.98 15.7 60.2 32 -1.1 30.1
17:15 1017 30.03 846 24.98 15.6 60.1 31 -1.2 29.9
17:20 1017 30.03 846 24.98 15.6 60.1 31 -1.2 29.8
17:25 1017 30.03 846 24.98 15.6 60 32 -1 30.2
17:30 1017 30.03 846 24.98 15.5 59.9 32 -0.8 30.6
17:35 1017 30.03 846 24.98 15.5 59.9 32 -1.2 29.8
17:40 1017 30.03 846 24.98 15.5 59.9 32 -1.1 30.1
17:45 1017 30.03 846 24.98 15.5 60 32 -1.1 30.1
17:50 1017 30.03 846 24.98 15.5 59.8 32 -1 30.1
17:55 1017 30.03 846 24.98 15.4 59.7 32 -1.1 30.1
18:00 1017 30.03 846 24.98 15.3 59.6 32 -1.2 29.9
18:05 1017 30.03 846 24.98 15.4 59.6 32 -1 30.1
18:10 1017 30.03 846 24.98 15.3 59.5 33 -0.9 30.4
18:15 1017 30.03 846 24.98 15.2 59.4 33 -0.8 30.6
18:20 1017 30.03 847 25.01 15.1 59.3 34 -0.7 30.7
18:25 1018 30.06 847 25.01 15.1 59.2 34 -0.6 30.9
18:30 1018 30.06 847 25.01 15 59.1 34 -0.6 30.9
18:35 1018 30.06 847 25.01 14.8 58.6 40 1.6 34.8
18:40 1018 30.06 847 25.01 14.3 57.7 42 1.6 34.8
18:45 1018 30.06 847 25.01 13.8 56.9 43 1.6 34.8
18:50 1018 30.06 848 25.04 13.4 56.1 47 2.5 36.5
18:55 1018 30.06 848 25.04 12.9 55.2 48 2.1 35.7
19:00 1019 30.09 848 25.04 12.7 54.8 56 4.1 39.4
19:05 1019 30.09 848 25.04 12.4 54.3 57 4.3 39.8
19:10 1019 30.09 848 25.04 11.7 53 64 5.1 41.1
19:15 1019 30.09 848 25.04 11 51.9 65 4.8 40.6
19:20 1019 30.09 848 25.04 10.8 51.4 68 5.2 41.3
19:25 1019 30.09 848 25.04 10.6 51.1 71 5.7 42.2
19:30 1019 30.09 848 25.04 10.5 51 72 5.7 42.3
19:35 1019 30.09 848 25.04 10.4 50.7 72 5.6 42.1
19:40 1019 30.09 849 25.07 10.2 50.4 73 5.6 42.1
19:45 1019 30.09 849 25.07 10.1 50.1 75 5.9 42.6
19:50 1020 30.12 849 25.07 9.8 49.7 78 6.1 43
19:55 1020 30.12 849 25.07 9.5 49.2 79 6.2 43.1
20:00 1020 30.12 849 25.07 9.5 49 78 5.8 42.5
20:05 1020 30.12 849 25.07 9.3 48.7 79 5.9 42.7
20:10 1020 30.12 849 25.07 9.1 48.3 81 6 42.9
20:15 1020 30.12 849 25.07 8.8 47.8 79 5.4 41.7
20:20 1020 30.12 849 25.07 8.4 47.1 83 5.6 42.1
20:25 1020 30.12 849 25.07 8.3 46.9 81 5.2 41.3
20:30 1020 30.12 849 25.07 8.2 46.8 80 5 40.9
20:35 1020 30.12 849 25.07 8.2 46.8 79 4.8 40.7
20:40 1020 30.12 849 25.07 8.3 46.9 79 4.9 40.8
20:45 1020 30.12 849 25.07 8.3 46.9 80 5 41.1
20:50 1020 30.12 849 25.07 8.2 46.8 80 4.9 40.9
20:55 1020 30.12 849 25.07 8.2 46.7 81 5.1 41.2
21:00 1020 30.12 849 25.07 8 46.5 80 4.7 40.5
21:05 1020 30.12 849 25.07 8 46.5 82 5.1 41.2
21:10 1020 30.12 849 25.07 8 46.4 83 5.3 41.6
21:15 1020 30.12 849 25.07 7.9 46.2 83 5.2 41.3
21:20 1020 30.12 849 25.07 7.9 46.3 84 5.4 41.7
21:25 1020 30.12 849 25.07 7.9 46.2 84 5.4 41.7
21:30 1020 30.12 849 25.07 7.8 46 86 5.6 42
21:35 1020 30.12 849 25.07 7.8 46.1 86 5.7 42.2
21:40 1020 30.12 849 25.07 7.9 46.2 86 5.6 42.1
21:45 1020 30.12 849 25.07 7.9 46.1 84 5.3 41.6
21:50 1020 30.12 849 25.07 7.8 46 84 5.3 41.5
21:55 1020 30.12 849 25.07 7.7 45.9 85 5.3 41.5
22:00 1020 30.12 849 25.07 7.6 45.7 85 5.2 41.4
22:05 1020 30.12 849 25.07 7.6 45.6 83 4.9 40.7
22:10 1020 30.12 849 25.07 7.6 45.7 84 5.1 41.2
22:15 1020 30.12 849 25.07 7.9 46.2 86 5.7 42.2
22:20 1020 30.12 849 25.07 8 46.5 86 5.9 42.7
22:25 1020 30.12 850 25.1 8 46.4 86 5.8 42.4
22:30 1020 30.12 850 25.1 7.9 46.2 86 5.7 42.2
22:35 1020 30.12 850 25.1 7.7 45.9 87 5.7 42.3
22:40 1021 30.15 850 25.1 7.6 45.7 87 5.6 42.1
22:45 1021 30.15 850 25.1 7.4 45.4 88 5.6 42.1
22:50 1021 30.15 850 25.1 7.3 45.2 88 5.5 41.9
22:55 1021 30.15 850 25.1 7.2 44.9 89 5.4 41.8
23:00 1021 30.15 850 25.1 7.1 44.7 88 5.3 41.5
23:05 1021 30.15 850 25.1 6.8 44.3 89 5.1 41.2
23:10 1021 30.15 850 25.1 6.7 44 88 4.8 40.7
23:15 1021 30.15 850 25.1 6.5 43.7 87 4.5 40
23:20 1021 30.15 850 25.1 6.4 43.4 87 4.3 39.7
23:25 1021 30.15 850 25.1 6.3 43.4 85 4 39.2
23:30 1021 30.15 850 25.1 6.3 43.4 86 4.1 39.3
23:35 1021 30.15 850 25.1 6.3 43.3 85 3.9 39
23:40 1021 30.15 850 25.1 6 42.7 86 3.8 38.8
23:45 1021 30.15 850 25.1 5.7 42.3 86 3.6 38.5
23:50 1021 30.15 850 25.1 5.6 42.1 86 3.5 38.2
23:55 1021 30.15 850 25.1 5.5 41.9 85 3.3 37.9
24:00 1021 30.15 850 25.1 5.4 41.7 86 3.3 37.9